Pagina principală
METAR-TAF:

METAR-TAF

Aeroporturi :

Priștina, Kosovo

Latitudine: 42-34-27N, longitudine: 21-02-09E, elevație: 545 m

Observații meteo curente

Raportul a fost făcut în urmă cu 33 de minute, la 15:00 UTC
Vânt 9 kt de la Vest/Nord-vest
Temperatură 14°C
Umiditate 38%
Presiune 1008 hPa
Vizibilitate de 10 km sau mai mult
Nori puțini la o înălțime de 9000 picior

METAR: BKPR 201500Z 29009KT 9999 FEW090 14/M00 Q1008 NOSIG

Ora: 17:33 (15:33 UTC)

Prognoză

Raportul a fost făcut în urmă cu 4 ore și 3 de minute, la 11:30 UTC
Prognoză valabilă de la 20 ora 12 UTC la 21 ora 12 UTC
Vânt 8 kt de la Nord/Nord-est
Vizibilitate de 10 km sau mai mult
Nori împrăștiați la o înălțime de 4000 picior
Nori fragmentați la o înălțime de 8000 picior
Temporar
de la 21 ora 06 UTC la 21 ora 12 UTC
Vizibilitate: 5000 m
ploaie,

TAF: BKPR 201130Z 2012/2112 02008KT 9999 SCT040 BKN080 TEMPO 2106/2112 5000 RA

Observații și prognoze meteo pentru peste 4.000 de aeroporturi (rapoarte METAR și TAF).

Stațiile disponibile sunt reprezentate pe hartă prin puncte galbene și roșii.

Țineți indicatorul mouse-ului pe punctul dorit pentru a vedea denumirea stației.

Apoi, faceți clic pentru a vedea observațiile și prognozele meteorologice.

Pentru a schimba harta: Pentru mărire, faceți clic pe butoanele verzi cu cruce neagră; pentru micșorare, pe butonul verde cu o liniuță; pentru hărți învecinate, pe săgețile verzi.


METAR-TAF: